createdAt,value
2023-07-29T00:01:23.104Z,100776.47
2023-07-29T00:03:49.883Z,100762.78
2023-07-29T00:06:16.736Z,100772.69
2023-07-29T00:08:43.397Z,100763.91
2023-07-29T00:11:10.098Z,100752.66
2023-07-29T00:13:36.744Z,100749.69
2023-07-29T00:16:05.116Z,100765.06
2023-07-29T00:18:31.973Z,100758.84
2023-07-29T00:20:58.756Z,100758.84
2023-07-29T00:23:25.684Z,100762.84
2023-07-29T00:25:52.446Z,100757.47
2023-07-29T00:28:21.310Z,100758.44
2023-07-29T00:30:49.987Z,100757.75
2023-07-29T00:33:18.066Z,100744.59
2023-07-29T00:35:44.799Z,100746.75
2023-07-29T00:38:11.462Z,100735.78
2023-07-29T00:40:38.564Z,100740.84
2023-07-29T00:43:05.305Z,100734.91
2023-07-29T00:45:33.426Z,100733.50
2023-07-29T00:48:00.941Z,100720.81
2023-07-29T00:50:31.104Z,100726.91
2023-07-29T00:53:00.660Z,100713.22
2023-07-29T00:55:27.778Z,100713.66
2023-07-29T00:57:55.297Z,100722.81
2023-07-29T01:00:22.263Z,100709.59
2023-07-29T01:02:49.288Z,100717.75
2023-07-29T01:05:18.622Z,100717.88
2023-07-29T01:07:56.671Z,100719.03
2023-07-29T01:10:34.245Z,100708.03
2023-07-29T01:13:07.310Z,100709.59
2023-07-29T01:15:40.526Z,100714.28
2023-07-29T01:18:14.112Z,100700.44
2023-07-29T01:20:44.789Z,100695.97
2023-07-29T01:23:12.864Z,100711.09
2023-07-29T01:25:41.214Z,100699.19
2023-07-29T01:28:08.070Z,100706.41
2023-07-29T01:30:44.507Z,100695.81
2023-07-29T01:33:19.126Z,100692.59
2023-07-29T01:35:49.212Z,100705.28
2023-07-29T01:38:19.539Z,100696.16
2023-07-29T01:40:49.499Z,100697.84
2023-07-29T01:43:16.165Z,100690.09
2023-07-29T01:45:43.087Z,100701.53
2023-07-29T01:48:10.214Z,100697.44
2023-07-29T01:50:36.979Z,100688.97
2023-07-29T01:53:03.795Z,100698.72
2023-07-29T01:55:30.602Z,100702.13
2023-07-29T01:57:58.786Z,100701.41
2023-07-29T02:00:26.333Z,100706.78
2023-07-29T02:02:53.053Z,100703.00
2023-07-29T02:05:19.839Z,100704.41
2023-07-29T02:07:46.530Z,100699.31
2023-07-29T02:10:13.221Z,100681.72
2023-07-29T02:12:40.103Z,100683.00
2023-07-29T02:15:09.474Z,100680.63
2023-07-29T02:17:36.575Z,100685.28
2023-07-29T02:20:03.561Z,100689.22
2023-07-29T02:22:30.389Z,100675.69
2023-07-29T02:24:57.485Z,100679.63
2023-07-29T02:27:24.193Z,100673.13
2023-07-29T02:29:51.154Z,100665.91
2023-07-29T02:32:19.270Z,100664.91
2023-07-29T02:34:46.050Z,100667.75
2023-07-29T02:37:13.077Z,100669.59
2023-07-29T02:39:39.880Z,100671.28
2023-07-29T02:42:07.062Z,100662.38
2023-07-29T02:44:33.779Z,100667.28
2023-07-29T02:47:00.658Z,100664.06
2023-07-29T02:49:28.784Z,100665.72
2023-07-29T02:51:55.577Z,100671.38
2023-07-29T02:54:22.261Z,100660.09
2023-07-29T02:56:48.926Z,100657.28
2023-07-29T02:59:15.566Z,100663.63
2023-07-29T03:01:42.232Z,100657.03
2023-07-29T03:04:09.025Z,100659.41
2023-07-29T03:06:37.249Z,100658.94
2023-07-29T03:09:04.032Z,100663.34
2023-07-29T03:11:30.721Z,100652.63
2023-07-29T03:13:57.601Z,100646.59
2023-07-29T03:16:24.761Z,100653.31
2023-07-29T03:18:55.385Z,100646.38
2023-07-29T03:21:22.069Z,100633.25
2023-07-29T03:23:50.186Z,100646.53
2023-07-29T03:26:16.944Z,100619.91
2023-07-29T03:28:44.190Z,100630.75
2023-07-29T03:31:12.317Z,100617.22
2023-07-29T03:33:39.641Z,100629.47
2023-07-29T03:36:06.538Z,100623.72
2023-07-29T03:38:33.553Z,100630.88
2023-07-29T03:41:01.860Z,100637.38
2023-07-29T03:43:28.925Z,100641.06
2023-07-29T03:45:57.453Z,100635.69
2023-07-29T03:48:24.219Z,100629.63
2023-07-29T03:50:50.945Z,100645.31
2023-07-29T03:53:17.648Z,100636.53
2023-07-29T03:55:44.592Z,100610.47
2023-07-29T03:58:13.082Z,100632.91
2023-07-29T04:00:39.945Z,100638.41
2023-07-29T04:03:06.877Z,100624.19
2023-07-29T04:05:34.212Z,100627.97
2023-07-29T04:08:01.031Z,100628.16
2023-07-29T04:10:27.850Z,100628.28
2023-07-29T04:12:55.055Z,100632.78
2023-07-29T04:15:23.220Z,100638.41
2023-07-29T04:17:49.967Z,100639.25
2023-07-29T04:20:16.708Z,100618.69
2023-07-29T04:22:43.424Z,100622.63
2023-07-29T04:25:10.695Z,100631.50
2023-07-29T04:27:37.431Z,100636.16
2023-07-29T04:30:05.079Z,100638.66
2023-07-29T04:32:33.140Z,100644.88
2023-07-29T04:34:59.854Z,100653.50
2023-07-29T04:37:26.592Z,100641.34
2023-07-29T04:39:53.338Z,100647.41
2023-07-29T04:42:20.024Z,100658.38
2023-07-29T04:44:46.766Z,100665.38
2023-07-29T04:47:13.451Z,100652.97
2023-07-29T04:49:41.518Z,100661.09
2023-07-29T04:52:09.283Z,100657.44
2023-07-29T04:54:36.070Z,100657.75
2023-07-29T04:57:02.954Z,100640.66
2023-07-29T04:59:29.582Z,100646.03
2023-07-29T05:01:56.244Z,100654.88
2023-07-29T05:04:23.242Z,100654.59
2023-07-29T05:06:51.253Z,100664.22
2023-07-29T05:09:19.407Z,100640.91
2023-07-29T05:11:46.248Z,100647.38
2023-07-29T05:14:14.548Z,100649.38
2023-07-29T05:16:42.685Z,100643.56
2023-07-29T05:19:09.776Z,100655.78
2023-07-29T05:21:36.690Z,100644.38
2023-07-29T05:24:05.193Z,100637.34
2023-07-29T05:26:32.256Z,100641.44
2023-07-29T05:28:58.951Z,100635.44
2023-07-29T05:31:25.663Z,100645.00
2023-07-29T05:33:52.320Z,100644.28
2023-07-29T05:36:19.145Z,100646.34
2023-07-29T05:38:45.837Z,100646.00
2023-07-29T05:41:13.939Z,100647.88
2023-07-29T05:43:40.684Z,100651.78
2023-07-29T05:46:07.508Z,100648.97
2023-07-29T05:48:34.272Z,100646.28
2023-07-29T05:51:03.373Z,100650.16
2023-07-29T05:53:30.113Z,100658.59
2023-07-29T05:55:56.950Z,100652.53
2023-07-29T05:58:25.408Z,100656.59
2023-07-29T06:00:52.294Z,100658.91
2023-07-29T06:03:20.175Z,100656.59
2023-07-29T06:05:47.338Z,100652.56
2023-07-29T06:08:14.036Z,100655.94
2023-07-29T06:10:40.764Z,100657.66
2023-07-29T06:13:07.525Z,100650.66
2023-07-29T06:15:35.728Z,100641.66
2023-07-29T06:18:02.516Z,100639.34
2023-07-29T06:20:29.746Z,100645.06
2023-07-29T06:22:56.599Z,100634.75
2023-07-29T06:25:23.393Z,100622.47
2023-07-29T06:27:50.251Z,100636.78
2023-07-29T06:30:17.192Z,100631.91
2023-07-29T06:32:45.266Z,100638.47
2023-07-29T06:35:12.016Z,100647.41
2023-07-29T06:37:38.681Z,100651.97
2023-07-29T06:40:06.485Z,100646.91
2023-07-29T06:42:33.184Z,100650.78
2023-07-29T06:44:59.885Z,100652.13
2023-07-29T06:47:26.591Z,100650.28
2023-07-29T06:49:55.154Z,100658.38
2023-07-29T06:52:21.894Z,100658.38
2023-07-29T06:54:48.734Z,100662.56
2023-07-29T06:57:15.422Z,100661.22
2023-07-29T06:59:42.171Z,100661.59
2023-07-29T07:02:08.908Z,100642.72
2023-07-29T07:04:35.584Z,100668.00
2023-07-29T07:07:03.918Z,100669.69
2023-07-29T07:09:30.646Z,100655.00
2023-07-29T07:11:57.327Z,100663.06
2023-07-29T07:14:24.052Z,100671.09
2023-07-29T07:16:50.765Z,100662.25
2023-07-29T07:19:17.451Z,100656.50
2023-07-29T07:21:44.216Z,100661.31
2023-07-29T07:24:12.338Z,100646.56
2023-07-29T07:26:39.310Z,100647.06
2023-07-29T07:29:06.539Z,100636.66
2023-07-29T07:31:34.819Z,100649.16
2023-07-29T07:34:01.614Z,100646.84
2023-07-29T07:36:28.256Z,100651.13
2023-07-29T07:38:55.056Z,100638.44
2023-07-29T07:41:23.066Z,100651.38
2023-07-29T07:43:49.766Z,100655.59
2023-07-29T07:46:16.489Z,100660.59
2023-07-29T07:48:43.238Z,100664.53
2023-07-29T07:51:13.203Z,100654.28
2023-07-29T07:53:40.181Z,100645.47
2023-07-29T07:56:07.088Z,100644.59
2023-07-29T07:58:35.684Z,100645.16
2023-07-29T08:01:03.472Z,100639.69
2023-07-29T08:03:30.240Z,100642.44
2023-07-29T08:05:57.017Z,100634.28
2023-07-29T08:08:23.751Z,100621.09
2023-07-29T08:10:50.366Z,100653.84
2023-07-29T08:13:17.063Z,100651.78
2023-07-29T08:15:48.527Z,100655.72
2023-07-29T08:18:15.432Z,100658.44
2023-07-29T08:20:42.183Z,100663.34
2023-07-29T08:23:08.934Z,100670.59
2023-07-29T08:25:35.628Z,100676.72
2023-07-29T08:28:02.631Z,100646.72
2023-07-29T08:30:29.347Z,100662.94
2023-07-29T08:32:57.408Z,100661.34
2023-07-29T08:35:24.119Z,100662.53
2023-07-29T08:37:50.852Z,100660.53
2023-07-29T08:40:17.951Z,100668.81
2023-07-29T08:42:47.699Z,100677.19
2023-07-29T08:45:15.493Z,100675.56
2023-07-29T08:47:42.338Z,100683.31
2023-07-29T08:50:12.640Z,100682.91
2023-07-29T08:52:42.630Z,100689.09
2023-07-29T08:55:09.766Z,100674.84
2023-07-29T08:57:36.758Z,100685.00
2023-07-29T09:00:03.893Z,100656.41
2023-07-29T09:02:30.611Z,100669.66
2023-07-29T09:04:57.343Z,100660.31
2023-07-29T09:07:25.890Z,100661.72
2023-07-29T09:09:52.600Z,100669.50
2023-07-29T09:12:20.006Z,100666.06
2023-07-29T09:14:46.698Z,100672.66
2023-07-29T09:17:13.742Z,100680.81
2023-07-29T09:19:40.565Z,100672.28
2023-07-29T09:22:18.595Z,100679.41
2023-07-29T09:24:47.067Z,100689.38
2023-07-29T09:27:24.695Z,100696.31
2023-07-29T09:29:51.373Z,100703.03
2023-07-29T09:32:21.648Z,100700.72
2023-07-29T09:34:48.389Z,100699.50
2023-07-29T09:37:18.639Z,100698.69
2023-07-29T09:39:47.648Z,100697.97
2023-07-29T09:42:18.718Z,100698.94
2023-07-29T09:44:45.400Z,100701.69
2023-07-29T09:47:20.907Z,100697.22
2023-07-29T09:49:47.537Z,100692.78
2023-07-29T09:52:15.983Z,100693.09
2023-07-29T09:54:43.843Z,100669.94
2023-07-29T09:57:12.072Z,100690.78
2023-07-29T09:59:38.780Z,100691.25
2023-07-29T10:02:05.843Z,100667.28
2023-07-29T10:04:34.767Z,100679.13
2023-07-29T10:07:02.939Z,100702.16
2023-07-29T10:09:30.005Z,100699.16
2023-07-29T10:11:58.303Z,100707.22
2023-07-29T10:14:28.894Z,100713.09
2023-07-29T10:16:56.928Z,100716.72
2023-07-29T10:19:24.892Z,100705.50
2023-07-29T10:21:52.408Z,100714.31
2023-07-29T10:24:23.018Z,100709.50
2023-07-29T10:26:51.207Z,100696.56
2023-07-29T10:29:20.952Z,100703.16
2023-07-29T10:31:52.965Z,100692.31
2023-07-29T10:34:20.101Z,100685.94
2023-07-29T10:36:48.546Z,100693.69
2023-07-29T10:39:15.273Z,100692.16
2023-07-29T10:41:59.158Z,100694.91
2023-07-29T10:44:48.646Z,100690.84
2023-07-29T10:47:17.546Z,100686.38
2023-07-29T10:49:44.375Z,100695.16
2023-07-29T10:52:14.650Z,100698.22
2023-07-29T10:54:45.370Z,100695.91
2023-07-29T10:57:15.989Z,100695.56
2023-07-29T10:59:55.140Z,100707.78
2023-07-29T11:02:30.165Z,100704.44
2023-07-29T11:04:56.897Z,100710.84
2023-07-29T11:07:23.809Z,100705.13
2023-07-29T11:09:57.409Z,100717.53
2023-07-29T11:12:41.792Z,100703.34
2023-07-29T11:15:16.908Z,100719.03
2023-07-29T11:17:46.407Z,100719.63
2023-07-29T11:20:14.569Z,100714.84
2023-07-29T11:22:42.149Z,100719.34
2023-07-29T11:25:10.367Z,100714.41
2023-07-29T11:27:37.272Z,100712.09
2023-07-29T11:30:06.737Z,100720.00
2023-07-29T11:32:34.139Z,100721.78
2023-07-29T11:35:07.090Z,100716.56
2023-07-29T11:37:34.451Z,100726.38
2023-07-29T11:40:01.680Z,100713.28
2023-07-29T11:42:28.469Z,100727.00
2023-07-29T11:44:57.607Z,100729.09
2023-07-29T11:47:24.120Z,100714.53
2023-07-29T11:49:50.976Z,100728.75
2023-07-29T11:52:19.900Z,100738.53
2023-07-29T11:54:47.747Z,100727.41
2023-07-29T11:57:14.938Z,100705.75
2023-07-29T11:59:42.436Z,100723.88
2023-07-29T12:02:12.330Z,100725.03
2023-07-29T12:04:40.916Z,100730.66
2023-07-29T12:07:07.962Z,100731.38
2023-07-29T12:09:36.826Z,100730.97
2023-07-29T12:12:04.900Z,100713.94
2023-07-29T12:14:32.117Z,100725.16
2023-07-29T12:17:01.110Z,100724.50
2023-07-29T12:19:33.362Z,100741.03
2023-07-29T12:22:00.157Z,100733.75
2023-07-29T12:24:26.973Z,100727.13
2023-07-29T12:26:54.991Z,100719.91
2023-07-29T12:29:21.655Z,100689.31
2023-07-29T12:31:48.431Z,100719.59
2023-07-29T12:34:19.243Z,100711.81
2023-07-29T12:36:47.958Z,100699.00
2023-07-29T12:39:18.984Z,100705.72
2023-07-29T12:41:45.862Z,100712.84
2023-07-29T12:44:16.456Z,100699.38
2023-07-29T12:46:43.793Z,100707.94
2023-07-29T12:49:10.597Z,100706.69
2023-07-29T12:51:37.670Z,100709.69
2023-07-29T12:54:05.158Z,100700.19
2023-07-29T12:56:31.898Z,100692.06
2023-07-29T12:58:59.118Z,100707.81
2023-07-29T13:01:28.019Z,100708.84
2023-07-29T13:03:55.016Z,100714.22
2023-07-29T13:06:21.930Z,100714.09
2023-07-29T13:08:49.081Z,100715.91
2023-07-29T13:11:16.005Z,100714.22
2023-07-29T13:13:42.972Z,100695.00
2023-07-29T13:16:09.719Z,100712.75
2023-07-29T13:18:37.826Z,100711.56
2023-07-29T13:21:04.504Z,100705.28
2023-07-29T13:23:31.174Z,100723.09
2023-07-29T13:25:58.149Z,100716.25
2023-07-29T13:28:24.870Z,100716.88
2023-07-29T13:30:51.769Z,100713.97
2023-07-29T13:33:18.506Z,100719.50
2023-07-29T13:35:46.496Z,100714.50
2023-07-29T13:38:13.236Z,100714.88
2023-07-29T13:40:40.135Z,100717.81
2023-07-29T13:43:06.791Z,100713.09
2023-07-29T13:45:34.763Z,100715.22
2023-07-29T13:48:01.523Z,100722.13
2023-07-29T13:50:28.245Z,100718.66
2023-07-29T13:52:56.317Z,100719.22
2023-07-29T13:55:23.120Z,100726.22
2023-07-29T13:57:49.760Z,100728.25
2023-07-29T14:00:16.412Z,100718.69
2023-07-29T14:02:43.308Z,100719.66
2023-07-29T14:05:10.248Z,100722.03
2023-07-29T14:07:36.986Z,100723.13
2023-07-29T14:10:05.701Z,100707.75
2023-07-29T14:12:32.383Z,100717.84
2023-07-29T14:14:59.157Z,100712.22
2023-07-29T14:17:25.975Z,100709.47
2023-07-29T14:19:52.655Z,100720.81
2023-07-29T14:22:19.425Z,100720.25
2023-07-29T14:24:46.175Z,100724.09
2023-07-29T14:27:14.288Z,100694.63
2023-07-29T14:29:41.011Z,100729.72
2023-07-29T14:32:07.730Z,100735.50
2023-07-29T14:34:34.564Z,100727.41
2023-07-29T14:37:01.254Z,100719.66
2023-07-29T14:39:27.961Z,100715.56
2023-07-29T14:41:54.698Z,100722.94
2023-07-29T14:44:22.735Z,100720.09
2023-07-29T14:46:49.496Z,100720.25
2023-07-29T14:49:16.156Z,100727.13
2023-07-29T14:54:09.421Z,100723.53
2023-07-29T14:56:36.346Z,100726.22
2023-07-29T14:59:03.224Z,100735.16
2023-07-29T15:01:31.268Z,100730.38
2023-07-29T15:03:58.054Z,100732.91
2023-07-29T15:06:24.741Z,100726.06
2023-07-29T15:08:51.474Z,100718.00
2023-07-29T15:11:18.275Z,100728.03
2023-07-29T15:13:44.933Z,100717.53
2023-07-29T15:16:11.631Z,100725.66
2023-07-29T15:18:39.725Z,100735.16
2023-07-29T15:21:06.478Z,100732.91
2023-07-29T15:23:33.193Z,100726.59
2023-07-29T15:25:59.893Z,100730.56
2023-07-29T15:28:26.811Z,100722.78
2023-07-29T15:30:54.220Z,100721.75
2023-07-29T15:33:21.017Z,100717.06
2023-07-29T15:35:49.060Z,100724.19
2023-07-29T15:38:15.836Z,100723.25
2023-07-29T15:40:42.481Z,100711.50
2023-07-29T15:43:09.165Z,100712.34
2023-07-29T15:45:35.983Z,100720.19
2023-07-29T15:48:02.688Z,100717.38
2023-07-29T15:50:29.436Z,100717.69
2023-07-29T15:52:57.542Z,100718.78
2023-07-29T15:55:24.244Z,100710.22
2023-07-29T15:57:51.054Z,100715.19
2023-07-29T16:00:17.751Z,100715.38
2023-07-29T16:02:44.475Z,100710.53
2023-07-29T16:05:11.246Z,100710.66
2023-07-29T16:07:38.014Z,100702.94
2023-07-29T16:10:07.637Z,100714.03
2023-07-29T16:12:34.387Z,100707.41
2023-07-29T16:15:01.055Z,100701.88
2023-07-29T16:17:27.726Z,100707.84
2023-07-29T16:19:56.634Z,100705.00
2023-07-29T16:22:23.590Z,100696.25
2023-07-29T16:24:50.345Z,100681.75
2023-07-29T16:27:18.752Z,100690.88
2023-07-29T16:29:45.423Z,100709.19
2023-07-29T16:32:12.426Z,100699.28
2023-07-29T16:34:39.958Z,100712.03
2023-07-29T16:37:07.441Z,100695.47
2023-07-29T16:39:34.793Z,100697.03
2023-07-29T16:44:32.485Z,100704.09
2023-07-29T16:46:59.193Z,100709.34
2023-07-29T16:49:25.885Z,100690.00
2023-07-29T16:51:52.556Z,100706.44
2023-07-29T16:54:19.717Z,100705.66
2023-07-29T16:56:47.777Z,100684.31
2023-07-29T16:59:14.406Z,100694.31
2023-07-29T17:01:42.587Z,100696.97
2023-07-29T17:04:09.420Z,100713.09
2023-07-29T17:06:36.214Z,100714.03
2023-07-29T17:09:03.188Z,100707.50
2023-07-29T17:11:29.969Z,100719.28
2023-07-29T17:13:56.608Z,100707.75
2023-07-29T17:16:23.308Z,100721.59
2023-07-29T17:18:51.367Z,100717.75
2023-07-29T17:21:18.055Z,100719.28
2023-07-29T17:23:44.699Z,100716.59
2023-07-29T17:26:11.428Z,100714.91
2023-07-29T17:28:38.164Z,100721.84
2023-07-29T17:31:04.999Z,100717.44
2023-07-29T17:33:31.760Z,100705.91
2023-07-29T17:35:59.764Z,100722.31
2023-07-29T17:38:26.456Z,100717.88
2023-07-29T17:40:53.079Z,100717.34
2023-07-29T17:43:19.719Z,100724.84
2023-07-29T17:45:46.363Z,100736.22
2023-07-29T17:48:13.141Z,100725.91
2023-07-29T17:50:42.060Z,100730.00
2023-07-29T17:53:10.125Z,100730.84
2023-07-29T17:55:37.448Z,100729.38
2023-07-29T17:58:04.123Z,100733.06
2023-07-29T18:00:30.916Z,100725.47
2023-07-29T18:02:57.698Z,100737.09
2023-07-29T18:05:24.499Z,100743.66
2023-07-29T18:07:51.155Z,100748.88
2023-07-29T18:10:19.206Z,100746.03
2023-07-29T18:12:45.971Z,100744.00
2023-07-29T18:15:12.753Z,100758.16
2023-07-29T18:17:39.470Z,100751.72
2023-07-29T18:20:07.297Z,100754.44
2023-07-29T18:22:34.194Z,100749.00
2023-07-29T18:25:00.853Z,100765.03
2023-07-29T18:27:28.886Z,100757.78
2023-07-29T18:29:55.585Z,100760.50
2023-07-29T18:32:22.228Z,100759.50
2023-07-29T18:34:49.089Z,100763.22
2023-07-29T18:37:15.788Z,100766.88
2023-07-29T18:39:42.465Z,100768.38
2023-07-29T18:42:09.168Z,100774.28
2023-07-29T18:44:37.281Z,100778.78
2023-07-29T18:47:04.260Z,100777.22
2023-07-29T18:49:30.949Z,100789.78
2023-07-29T18:51:57.654Z,100779.34
2023-07-29T18:54:24.311Z,100780.31
2023-07-29T18:56:51.008Z,100754.94
2023-07-29T18:59:17.686Z,100794.69
2023-07-29T19:01:45.774Z,100778.81
2023-07-29T19:04:12.539Z,100785.22
2023-07-29T19:06:39.629Z,100787.31
2023-07-29T19:09:06.538Z,100793.31
2023-07-29T19:11:33.220Z,100794.50
2023-07-29T19:13:59.905Z,100791.75
2023-07-29T19:16:26.619Z,100795.22
2023-07-29T19:18:54.733Z,100801.59
2023-07-29T19:21:21.602Z,100804.47
2023-07-29T19:23:48.530Z,100798.69
2023-07-29T19:26:15.152Z,100808.06
2023-07-29T19:28:41.800Z,100799.91
2023-07-29T19:31:11.403Z,100807.28
2023-07-29T19:33:41.328Z,100808.19
2023-07-29T19:36:09.399Z,100798.00
2023-07-29T19:38:36.190Z,100820.19
2023-07-29T19:41:03.324Z,100817.13
2023-07-29T19:43:30.008Z,100824.16
2023-07-29T19:46:35.718Z,100797.97
2023-07-29T19:48:43.482Z,100821.78
2023-07-29T19:51:11.537Z,100823.50
2023-07-29T19:53:38.214Z,100822.81
2023-07-29T19:56:05.278Z,100819.56
2023-07-29T19:58:31.989Z,100813.56
2023-07-29T20:00:58.654Z,100831.09
2023-07-29T20:03:25.483Z,100813.06
2023-07-29T20:05:52.194Z,100825.16
2023-07-29T20:08:20.275Z,100828.00
2023-07-29T20:10:46.926Z,100832.13
2023-07-29T20:13:15.311Z,100830.97
2023-07-29T20:15:42.131Z,100837.97
2023-07-29T20:18:08.973Z,100830.53
2023-07-29T20:20:35.711Z,100839.56
2023-07-29T20:23:02.406Z,100844.22
2023-07-29T20:25:30.409Z,100850.75
2023-07-29T20:27:57.107Z,100843.97
2023-07-29T20:30:23.780Z,100847.97
2023-07-29T20:32:50.530Z,100841.63
2023-07-29T20:35:17.384Z,100842.09
2023-07-29T20:37:44.107Z,100839.56
2023-07-29T20:40:11.676Z,100849.44
2023-07-29T20:42:39.766Z,100823.69
2023-07-29T20:45:07.576Z,100835.28
2023-07-29T20:47:34.401Z,100850.75
2023-07-29T20:50:01.460Z,100843.66
2023-07-29T20:52:28.165Z,100842.19
2023-07-29T20:54:54.849Z,100839.03
2023-07-29T20:57:21.613Z,100833.09
2023-07-29T20:59:49.617Z,100830.94
2023-07-29T21:02:16.335Z,100829.25
2023-07-29T21:04:43.047Z,100806.41
2023-07-29T21:07:09.735Z,100818.63
2023-07-29T21:09:36.407Z,100830.94
2023-07-29T21:12:03.531Z,100838.47
2023-07-29T21:14:30.208Z,100831.69
2023-07-29T21:16:58.303Z,100825.97
2023-07-29T21:19:25.056Z,100836.59
2023-07-29T21:21:51.701Z,100841.41
2023-07-29T21:24:18.346Z,100822.94
2023-07-29T21:26:45.061Z,100840.59
2023-07-29T21:29:11.768Z,100842.44
2023-07-29T21:31:38.693Z,100839.06
2023-07-29T21:34:06.945Z,100837.25
2023-07-29T21:36:33.717Z,100841.75
2023-07-29T21:39:00.455Z,100847.44
2023-07-29T21:41:27.141Z,100840.66
2023-07-29T21:43:53.944Z,100841.63
2023-07-29T21:46:20.718Z,100856.47
2023-07-29T21:48:47.629Z,100836.56
2023-07-29T21:51:15.795Z,100850.84
2023-07-29T21:53:42.440Z,100843.09
2023-07-29T21:56:09.090Z,100785.66
2023-07-29T21:58:35.819Z,100838.72
2023-07-29T22:01:02.576Z,100840.16
2023-07-29T22:03:29.414Z,100837.91
2023-07-29T22:06:03.010Z,100822.66
2023-07-29T22:08:31.189Z,100833.28
2023-07-29T22:11:02.885Z,100837.63
2023-07-29T22:13:29.621Z,100828.63
2023-07-29T22:15:56.267Z,100834.25
2023-07-29T22:18:22.972Z,100835.69
2023-07-29T22:20:57.664Z,100837.66
2023-07-29T22:23:24.680Z,100837.09
2023-07-29T22:26:00.555Z,100832.19
2023-07-29T22:28:28.194Z,100826.94
2023-07-29T22:30:55.287Z,100821.31
2023-07-29T22:33:22.909Z,100831.22
2023-07-29T22:35:49.734Z,100830.19
2023-07-29T22:38:16.464Z,100820.34
2023-07-29T22:40:43.144Z,100834.59
2023-07-29T22:43:11.158Z,100829.50
2023-07-29T22:45:37.887Z,100830.50
2023-07-29T22:48:05.284Z,100845.44
2023-07-29T22:50:31.967Z,100840.47
2023-07-29T22:52:58.667Z,100840.44
2023-07-29T22:55:25.317Z,100849.06
2023-07-29T22:57:51.981Z,100846.06
2023-07-29T23:00:20.179Z,100832.94
2023-07-29T23:02:46.979Z,100845.66
2023-07-29T23:05:13.785Z,100840.97
2023-07-29T23:07:40.733Z,100842.66
2023-07-29T23:10:08.257Z,100836.75
2023-07-29T23:12:35.040Z,100843.25
2023-07-29T23:15:01.741Z,100844.94
2023-07-29T23:17:29.782Z,100832.91
2023-07-29T23:19:56.577Z,100855.66
2023-07-29T23:22:23.259Z,100840.66
2023-07-29T23:24:49.952Z,100846.03
2023-07-29T23:27:16.650Z,100827.41
2023-07-29T23:29:43.406Z,100839.56
2023-07-29T23:32:10.106Z,100847.06
2023-07-29T23:34:38.274Z,100847.53
2023-07-29T23:37:05.347Z,100845.94
2023-07-29T23:39:32.042Z,100847.41
2023-07-29T23:41:59.087Z,100847.97
2023-07-29T23:44:25.721Z,100824.13
2023-07-29T23:46:52.429Z,100839.38
2023-07-29T23:49:19.091Z,100839.66
2023-07-29T23:51:47.089Z,100839.09
2023-07-29T23:54:13.779Z,100850.41
2023-07-29T23:56:40.440Z,100850.69
2023-07-29T23:59:07.088Z,100853.81
